sensor_id;sensor_type;location;lat;lon;timestamp;P1;durP1;ratioP1;P2;durP2;ratioP2
42840;SDS011;28491;46.898;7.660;2024-02-15T00:02:02;3.90;;;2.30;;
42840;SDS011;28491;46.898;7.660;2024-02-15T00:04:27;4.47;;;3.05;;
42840;SDS011;28491;46.898;7.660;2024-02-15T00:06:53;5.30;;;3.10;;
42840;SDS011;28491;46.898;7.660;2024-02-15T00:09:19;5.75;;;2.00;;
42840;SDS011;28491;46.898;7.660;2024-02-15T00:11:44;4.95;;;2.72;;
42840;SDS011;28491;46.898;7.660;2024-02-15T00:14:10;5.45;;;2.28;;
42840;SDS011;28491;46.898;7.660;2024-02-15T00:16:37;4.47;;;2.42;;
42840;SDS011;28491;46.898;7.660;2024-02-15T00:19:02;4.38;;;2.75;;
42840;SDS011;28491;46.898;7.660;2024-02-15T00:21:28;4.53;;;2.67;;
42840;SDS011;28491;46.898;7.660;2024-02-15T00:23:53;8.93;;;2.17;;
42840;SDS011;28491;46.898;7.660;2024-02-15T00:26:21;3.30;;;2.25;;
42840;SDS011;28491;46.898;7.660;2024-02-15T00:28:47;3.70;;;2.05;;
42840;SDS011;28491;46.898;7.660;2024-02-15T00:31:14;4.07;;;2.00;;
42840;SDS011;28491;46.898;7.660;2024-02-15T00:33:39;3.95;;;2.75;;
42840;SDS011;28491;46.898;7.660;2024-02-15T00:36:05;6.20;;;2.45;;
42840;SDS011;28491;46.898;7.660;2024-02-15T00:38:34;3.88;;;2.15;;
42840;SDS011;28491;46.898;7.660;2024-02-15T00:41:00;3.40;;;2.17;;
42840;SDS011;28491;46.898;7.660;2024-02-15T00:43:26;4.45;;;2.40;;
42840;SDS011;28491;46.898;7.660;2024-02-15T00:45:52;3.83;;;2.38;;
42840;SDS011;28491;46.898;7.660;2024-02-15T00:48:18;3.28;;;2.08;;
42840;SDS011;28491;46.898;7.660;2024-02-15T00:50:43;5.38;;;2.33;;
42840;SDS011;28491;46.898;7.660;2024-02-15T00:53:09;3.78;;;1.88;;
42840;SDS011;28491;46.898;7.660;2024-02-15T00:55:34;3.70;;;2.00;;
42840;SDS011;28491;46.898;7.660;2024-02-15T00:58:00;3.30;;;1.90;;
42840;SDS011;28491;46.898;7.660;2024-02-15T01:00:25;3.67;;;1.75;;
42840;SDS011;28491;46.898;7.660;2024-02-15T01:02:51;5.18;;;1.92;;
42840;SDS011;28491;46.898;7.660;2024-02-15T01:05:18;7.25;;;2.53;;
42840;SDS011;28491;46.898;7.660;2024-02-15T01:07:43;3.40;;;1.80;;
42840;SDS011;28491;46.898;7.660;2024-02-15T01:10:09;5.38;;;2.08;;
42840;SDS011;28491;46.898;7.660;2024-02-15T01:12:35;3.55;;;1.80;;
42840;SDS011;28491;46.898;7.660;2024-02-15T01:15:00;3.63;;;2.30;;
42840;SDS011;28491;46.898;7.660;2024-02-15T01:17:26;3.40;;;2.10;;
42840;SDS011;28491;46.898;7.660;2024-02-15T01:19:52;5.85;;;2.70;;
42840;SDS011;28491;46.898;7.660;2024-02-15T01:22:18;4.03;;;2.45;;
42840;SDS011;28491;46.898;7.660;2024-02-15T01:24:43;3.42;;;2.08;;
42840;SDS011;28491;46.898;7.660;2024-02-15T01:27:10;5.03;;;2.00;;
42840;SDS011;28491;46.898;7.660;2024-02-15T01:29:35;3.53;;;2.05;;
42840;SDS011;28491;46.898;7.660;2024-02-15T01:32:01;3.47;;;2.15;;
42840;SDS011;28491;46.898;7.660;2024-02-15T01:34:27;4.80;;;2.20;;
42840;SDS011;28491;46.898;7.660;2024-02-15T01:36:53;3.55;;;1.85;;
42840;SDS011;28491;46.898;7.660;2024-02-15T01:39:18;2.75;;;1.88;;
42840;SDS011;28491;46.898;7.660;2024-02-15T01:41:47;3.03;;;1.50;;
42840;SDS011;28491;46.898;7.660;2024-02-15T01:44:16;4.85;;;1.95;;
42840;SDS011;28491;46.898;7.660;2024-02-15T01:46:43;3.75;;;1.88;;
42840;SDS011;28491;46.898;7.660;2024-02-15T01:49:10;3.97;;;1.98;;
42840;SDS011;28491;46.898;7.660;2024-02-15T01:51:36;5.28;;;2.08;;
42840;SDS011;28491;46.898;7.660;2024-02-15T01:54:02;5.05;;;1.95;;
42840;SDS011;28491;46.898;7.660;2024-02-15T01:56:29;2.58;;;1.45;;
42840;SDS011;28491;46.898;7.660;2024-02-15T01:58:55;3.38;;;2.08;;
42840;SDS011;28491;46.898;7.660;2024-02-15T02:01:22;2.05;;;1.33;;
42840;SDS011;28491;46.898;7.660;2024-02-15T02:03:47;3.63;;;1.60;;
42840;SDS011;28491;46.898;7.660;2024-02-15T02:06:13;4.45;;;2.00;;
42840;SDS011;28491;46.898;7.660;2024-02-15T02:08:39;3.30;;;1.70;;
42840;SDS011;28491;46.898;7.660;2024-02-15T02:11:04;3.50;;;1.83;;
42840;SDS011;28491;46.898;7.660;2024-02-15T02:13:30;1.92;;;1.23;;
42840;SDS011;28491;46.898;7.660;2024-02-15T02:15:56;3.78;;;1.92;;
42840;SDS011;28491;46.898;7.660;2024-02-15T02:18:21;2.30;;;1.33;;
42840;SDS011;28491;46.898;7.660;2024-02-15T02:20:49;2.30;;;1.40;;
42840;SDS011;28491;46.898;7.660;2024-02-15T02:23:15;3.03;;;1.50;;
42840;SDS011;28491;46.898;7.660;2024-02-15T02:25:43;4.28;;;1.65;;
42840;SDS011;28491;46.898;7.660;2024-02-15T02:28:09;3.28;;;1.98;;
42840;SDS011;28491;46.898;7.660;2024-02-15T02:30:35;2.03;;;1.35;;
42840;SDS011;28491;46.898;7.660;2024-02-15T02:33:01;2.58;;;1.40;;
42840;SDS011;28491;46.898;7.660;2024-02-15T02:35:27;2.30;;;1.42;;
42840;SDS011;28491;46.898;7.660;2024-02-15T02:37:56;2.60;;;1.67;;
42840;SDS011;28491;46.898;7.660;2024-02-15T02:40:21;2.47;;;1.30;;
42840;SDS011;28491;46.898;7.660;2024-02-15T02:42:48;3.58;;;1.63;;
42840;SDS011;28491;46.898;7.660;2024-02-15T02:45:15;2.60;;;1.63;;
42840;SDS011;28491;46.898;7.660;2024-02-15T02:47:41;2.00;;;1.38;;
42840;SDS011;28491;46.898;7.660;2024-02-15T02:50:06;2.40;;;1.60;;
42840;SDS011;28491;46.898;7.660;2024-02-15T02:52:33;3.92;;;2.17;;
42840;SDS011;28491;46.898;7.660;2024-02-15T02:54:58;2.72;;;1.58;;
42840;SDS011;28491;46.898;7.660;2024-02-15T02:57:24;3.58;;;1.60;;
42840;SDS011;28491;46.898;7.660;2024-02-15T02:59:50;2.10;;;1.33;;
42840;SDS011;28491;46.898;7.660;2024-02-15T03:02:16;3.80;;;1.40;;
42840;SDS011;28491;46.898;7.660;2024-02-15T03:04:42;3.58;;;1.60;;
42840;SDS011;28491;46.898;7.660;2024-02-15T03:07:08;2.17;;;1.42;;
42840;SDS011;28491;46.898;7.660;2024-02-15T03:09:34;1.95;;;1.27;;
42840;SDS011;28491;46.898;7.660;2024-02-15T03:12:02;4.03;;;1.77;;
42840;SDS011;28491;46.898;7.660;2024-02-15T03:14:28;3.15;;;1.95;;
42840;SDS011;28491;46.898;7.660;2024-02-15T03:16:55;2.70;;;1.92;;
42840;SDS011;28491;46.898;7.660;2024-02-15T03:19:20;4.15;;;1.80;;
42840;SDS011;28491;46.898;7.660;2024-02-15T03:21:47;2.15;;;1.40;;
42840;SDS011;28491;46.898;7.660;2024-02-15T03:24:13;2.22;;;1.65;;
42840;SDS011;28491;46.898;7.660;2024-02-15T03:26:38;2.58;;;1.30;;
42840;SDS011;28491;46.898;7.660;2024-02-15T03:29:05;3.95;;;1.50;;
42840;SDS011;28491;46.898;7.660;2024-02-15T03:31:32;2.08;;;1.27;;
42840;SDS011;28491;46.898;7.660;2024-02-15T03:33:59;1.67;;;1.20;;
42840;SDS011;28491;46.898;7.660;2024-02-15T03:36:25;3.78;;;1.92;;
42840;SDS011;28491;46.898;7.660;2024-02-15T03:38:50;2.13;;;1.20;;
42840;SDS011;28491;46.898;7.660;2024-02-15T03:41:18;2.80;;;1.35;;
42840;SDS011;28491;46.898;7.660;2024-02-15T03:43:44;2.33;;;1.30;;
42840;SDS011;28491;46.898;7.660;2024-02-15T03:46:11;4.25;;;3.17;;
42840;SDS011;28491;46.898;7.660;2024-02-15T03:48:39;2.17;;;1.42;;
42840;SDS011;28491;46.898;7.660;2024-02-15T03:51:08;3.05;;;1.50;;
42840;SDS011;28491;46.898;7.660;2024-02-15T03:53:34;2.15;;;1.50;;
42840;SDS011;28491;46.898;7.660;2024-02-15T03:56:02;2.95;;;1.55;;
42840;SDS011;28491;46.898;7.660;2024-02-15T03:58:30;1.63;;;1.10;;
42840;SDS011;28491;46.898;7.660;2024-02-15T04:00:58;3.53;;;1.65;;
42840;SDS011;28491;46.898;7.660;2024-02-15T04:03:24;2.42;;;1.60;;
42840;SDS011;28491;46.898;7.660;2024-02-15T04:05:49;2.92;;;1.80;;
42840;SDS011;28491;46.898;7.660;2024-02-15T04:08:15;2.05;;;1.38;;
42840;SDS011;28491;46.898;7.660;2024-02-15T04:10:42;2.75;;;1.65;;
42840;SDS011;28491;46.898;7.660;2024-02-15T04:13:07;2.47;;;1.35;;
42840;SDS011;28491;46.898;7.660;2024-02-15T04:15:33;2.45;;;1.38;;
42840;SDS011;28491;46.898;7.660;2024-02-15T04:17:59;2.60;;;1.50;;
42840;SDS011;28491;46.898;7.660;2024-02-15T04:20:24;3.70;;;2.13;;
42840;SDS011;28491;46.898;7.660;2024-02-15T04:22:51;2.78;;;1.70;;
42840;SDS011;28491;46.898;7.660;2024-02-15T04:25:17;4.13;;;2.22;;
42840;SDS011;28491;46.898;7.660;2024-02-15T04:27:45;4.88;;;2.75;;
42840;SDS011;28491;46.898;7.660;2024-02-15T04:30:17;4.28;;;1.67;;
42840;SDS011;28491;46.898;7.660;2024-02-15T04:32:43;3.60;;;2.05;;
42840;SDS011;28491;46.898;7.660;2024-02-15T04:35:08;4.80;;;2.17;;
42840;SDS011;28491;46.898;7.660;2024-02-15T04:37:34;4.50;;;2.40;;
42840;SDS011;28491;46.898;7.660;2024-02-15T04:40:02;4.40;;;2.88;;
42840;SDS011;28491;46.898;7.660;2024-02-15T04:42:35;3.63;;;2.40;;
42840;SDS011;28491;46.898;7.660;2024-02-15T04:45:05;4.45;;;2.55;;
42840;SDS011;28491;46.898;7.660;2024-02-15T04:47:38;4.35;;;2.33;;
42840;SDS011;28491;46.898;7.660;2024-02-15T04:50:06;5.55;;;3.17;;
42840;SDS011;28491;46.898;7.660;2024-02-15T04:52:32;6.43;;;3.75;;
42840;SDS011;28491;46.898;7.660;2024-02-15T04:54:57;9.93;;;5.32;;
42840;SDS011;28491;46.898;7.660;2024-02-15T04:57:24;4.75;;;3.13;;
42840;SDS011;28491;46.898;7.660;2024-02-15T04:59:53;4.10;;;2.38;;
42840;SDS011;28491;46.898;7.660;2024-02-15T05:02:19;3.95;;;2.53;;
42840;SDS011;28491;46.898;7.660;2024-02-15T05:04:44;4.38;;;2.25;;
42840;SDS011;28491;46.898;7.660;2024-02-15T05:07:10;5.45;;;2.50;;
42840;SDS011;28491;46.898;7.660;2024-02-15T05:09:36;5.20;;;2.45;;
42840;SDS011;28491;46.898;7.660;2024-02-15T05:12:01;5.82;;;3.20;;
42840;SDS011;28491;46.898;7.660;2024-02-15T05:14:27;8.63;;;3.42;;
42840;SDS011;28491;46.898;7.660;2024-02-15T05:16:53;7.60;;;3.45;;
42840;SDS011;28491;46.898;7.660;2024-02-15T05:19:19;4.82;;;2.10;;
42840;SDS011;28491;46.898;7.660;2024-02-15T05:21:45;3.05;;;1.40;;
42840;SDS011;28491;46.898;7.660;2024-02-15T05:24:14;1.73;;;1.30;;
42840;SDS011;28491;46.898;7.660;2024-02-15T05:26:41;3.60;;;1.45;;
42840;SDS011;28491;46.898;7.660;2024-02-15T05:29:13;5.15;;;1.50;;
42840;SDS011;28491;46.898;7.660;2024-02-15T05:31:40;3.67;;;1.88;;
42840;SDS011;28491;46.898;7.660;2024-02-15T05:34:06;4.00;;;1.75;;
42840;SDS011;28491;46.898;7.660;2024-02-15T05:36:36;3.83;;;1.45;;
42840;SDS011;28491;46.898;7.660;2024-02-15T05:39:03;2.38;;;1.40;;
42840;SDS011;28491;46.898;7.660;2024-02-15T05:41:29;2.58;;;1.23;;
42840;SDS011;28491;46.898;7.660;2024-02-15T05:43:55;3.60;;;1.35;;
42840;SDS011;28491;46.898;7.660;2024-02-15T05:46:22;3.10;;;1.52;;
42840;SDS011;28491;46.898;7.660;2024-02-15T05:48:48;3.35;;;1.65;;
42840;SDS011;28491;46.898;7.660;2024-02-15T05:51:15;3.05;;;1.48;;
42840;SDS011;28491;46.898;7.660;2024-02-15T05:53:41;3.45;;;1.77;;
42840;SDS011;28491;46.898;7.660;2024-02-15T05:56:07;5.20;;;2.28;;
42840;SDS011;28491;46.898;7.660;2024-02-15T05:58:34;3.85;;;1.67;;
42840;SDS011;28491;46.898;7.660;2024-02-15T06:01:00;4.65;;;1.50;;
42840;SDS011;28491;46.898;7.660;2024-02-15T06:03:30;4.40;;;2.10;;
42840;SDS011;28491;46.898;7.660;2024-02-15T06:05:58;5.65;;;1.83;;
42840;SDS011;28491;46.898;7.660;2024-02-15T06:08:25;2.25;;;1.33;;
42840;SDS011;28491;46.898;7.660;2024-02-15T06:10:51;4.28;;;2.85;;
42840;SDS011;28491;46.898;7.660;2024-02-15T06:13:17;3.85;;;1.80;;
42840;SDS011;28491;46.898;7.660;2024-02-15T06:15:43;3.35;;;1.73;;
42840;SDS011;28491;46.898;7.660;2024-02-15T06:18:09;5.03;;;2.78;;
42840;SDS011;28491;46.898;7.660;2024-02-15T06:20:39;4.95;;;2.10;;
42840;SDS011;28491;46.898;7.660;2024-02-15T06:23:06;3.05;;;1.65;;
42840;SDS011;28491;46.898;7.660;2024-02-15T06:25:32;3.75;;;1.48;;
42840;SDS011;28491;46.898;7.660;2024-02-15T06:27:58;3.33;;;1.60;;
42840;SDS011;28491;46.898;7.660;2024-02-15T06:30:27;3.88;;;2.20;;
42840;SDS011;28491;46.898;7.660;2024-02-15T06:33:12;2.75;;;1.60;;
42840;SDS011;28491;46.898;7.660;2024-02-15T06:35:56;2.63;;;1.52;;
42840;SDS011;28491;46.898;7.660;2024-02-15T06:38:40;4.80;;;2.25;;
42840;SDS011;28491;46.898;7.660;2024-02-15T06:41:24;5.00;;;1.65;;
42840;SDS011;28491;46.898;7.660;2024-02-15T06:43:51;2.75;;;1.48;;
42840;SDS011;28491;46.898;7.660;2024-02-15T06:46:16;4.90;;;3.28;;
42840;SDS011;28491;46.898;7.660;2024-02-15T06:48:44;4.60;;;2.80;;
42840;SDS011;28491;46.898;7.660;2024-02-15T06:51:13;6.82;;;2.35;;
42840;SDS011;28491;46.898;7.660;2024-02-15T06:53:40;5.07;;;2.58;;
42840;SDS011;28491;46.898;7.660;2024-02-15T06:56:08;9.82;;;4.78;;
42840;SDS011;28491;46.898;7.660;2024-02-15T06:58:33;9.07;;;4.47;;
42840;SDS011;28491;46.898;7.660;2024-02-15T07:01:00;9.18;;;4.97;;
42840;SDS011;28491;46.898;7.660;2024-02-15T07:03:25;7.15;;;3.38;;
42840;SDS011;28491;46.898;7.660;2024-02-15T07:05:54;4.03;;;2.75;;
42840;SDS011;28491;46.898;7.660;2024-02-15T07:08:21;5.15;;;2.53;;
42840;SDS011;28491;46.898;7.660;2024-02-15T07:10:48;5.68;;;2.60;;
42840;SDS011;28491;46.898;7.660;2024-02-15T07:13:14;5.43;;;2.45;;
42840;SDS011;28491;46.898;7.660;2024-02-15T07:15:39;5.75;;;2.30;;
42840;SDS011;28491;46.898;7.660;2024-02-15T07:18:05;4.20;;;2.25;;
42840;SDS011;28491;46.898;7.660;2024-02-15T07:20:32;4.63;;;2.65;;
42840;SDS011;28491;46.898;7.660;2024-02-15T07:23:00;6.60;;;1.92;;
42840;SDS011;28491;46.898;7.660;2024-02-15T07:25:26;5.32;;;2.90;;
42840;SDS011;28491;46.898;7.660;2024-02-15T07:27:51;5.57;;;2.70;;
42840;SDS011;28491;46.898;7.660;2024-02-15T07:30:17;9.95;;;4.78;;
42840;SDS011;28491;46.898;7.660;2024-02-15T07:32:43;12.52;;;5.07;;
42840;SDS011;28491;46.898;7.660;2024-02-15T07:35:09;11.60;;;5.43;;
42840;SDS011;28491;46.898;7.660;2024-02-15T07:37:35;7.55;;;4.15;;
42840;SDS011;28491;46.898;7.660;2024-02-15T07:40:01;8.82;;;4.88;;
42840;SDS011;28491;46.898;7.660;2024-02-15T07:42:28;7.45;;;3.38;;
42840;SDS011;28491;46.898;7.660;2024-02-15T07:44:54;7.70;;;3.33;;
42840;SDS011;28491;46.898;7.660;2024-02-15T07:47:20;5.22;;;2.60;;
42840;SDS011;28491;46.898;7.660;2024-02-15T07:49:49;7.47;;;3.58;;
42840;SDS011;28491;46.898;7.660;2024-02-15T07:52:17;6.03;;;3.53;;
42840;SDS011;28491;46.898;7.660;2024-02-15T07:54:43;5.50;;;2.58;;
42840;SDS011;28491;46.898;7.660;2024-02-15T07:57:09;5.97;;;2.30;;
42840;SDS011;28491;46.898;7.660;2024-02-15T07:59:35;8.52;;;3.63;;
42840;SDS011;28491;46.898;7.660;2024-02-15T08:02:01;8.35;;;3.67;;
42840;SDS011;28491;46.898;7.660;2024-02-15T08:04:27;12.77;;;5.70;;
42840;SDS011;28491;46.898;7.660;2024-02-15T08:06:53;10.98;;;6.90;;
42840;SDS011;28491;46.898;7.660;2024-02-15T08:09:19;9.25;;;4.57;;
42840;SDS011;28491;46.898;7.660;2024-02-15T08:11:47;7.28;;;4.10;;
42840;SDS011;28491;46.898;7.660;2024-02-15T08:14:13;4.43;;;2.50;;
42840;SDS011;28491;46.898;7.660;2024-02-15T08:16:39;5.80;;;3.40;;
42840;SDS011;28491;46.898;7.660;2024-02-15T08:19:05;3.67;;;2.20;;
42840;SDS011;28491;46.898;7.660;2024-02-15T08:21:32;4.72;;;2.35;;
42840;SDS011;28491;46.898;7.660;2024-02-15T08:24:01;3.90;;;2.33;;
42840;SDS011;28491;46.898;7.660;2024-02-15T08:26:32;3.78;;;2.15;;
42840;SDS011;28491;46.898;7.660;2024-02-15T08:28:58;9.68;;;3.10;;
42840;SDS011;28491;46.898;7.660;2024-02-15T08:31:23;3.85;;;2.45;;
42840;SDS011;28491;46.898;7.660;2024-02-15T08:33:52;7.80;;;3.60;;
42840;SDS011;28491;46.898;7.660;2024-02-15T08:36:18;5.65;;;2.72;;
42840;SDS011;28491;46.898;7.660;2024-02-15T08:38:43;4.25;;;2.50;;
42840;SDS011;28491;46.898;7.660;2024-02-15T08:41:09;3.38;;;2.00;;
42840;SDS011;28491;46.898;7.660;2024-02-15T08:43:37;3.07;;;1.70;;
42840;SDS011;28491;46.898;7.660;2024-02-15T08:46:05;5.93;;;2.90;;
42840;SDS011;28491;46.898;7.660;2024-02-15T08:48:31;5.10;;;2.50;;
42840;SDS011;28491;46.898;7.660;2024-02-15T08:50:57;4.57;;;2.88;;
42840;SDS011;28491;46.898;7.660;2024-02-15T08:53:22;3.63;;;2.40;;
42840;SDS011;28491;46.898;7.660;2024-02-15T08:55:49;6.40;;;2.47;;
42840;SDS011;28491;46.898;7.660;2024-02-15T08:58:15;3.95;;;2.58;;
42840;SDS011;28491;46.898;7.660;2024-02-15T09:00:40;4.68;;;3.13;;
42840;SDS011;28491;46.898;7.660;2024-02-15T09:03:09;5.00;;;2.50;;
42840;SDS011;28491;46.898;7.660;2024-02-15T09:05:38;5.57;;;3.40;;
42840;SDS011;28491;46.898;7.660;2024-02-15T09:08:07;4.55;;;2.85;;
42840;SDS011;28491;46.898;7.660;2024-02-15T09:10:33;6.47;;;3.33;;
42840;SDS011;28491;46.898;7.660;2024-02-15T09:12:58;5.88;;;2.95;;
42840;SDS011;28491;46.898;7.660;2024-02-15T09:15:24;4.05;;;2.85;;
42840;SDS011;28491;46.898;7.660;2024-02-15T09:17:50;6.50;;;2.75;;
42840;SDS011;28491;46.898;7.660;2024-02-15T09:20:16;7.63;;;3.90;;
42840;SDS011;28491;46.898;7.660;2024-02-15T09:25:15;6.20;;;3.60;;
42840;SDS011;28491;46.898;7.660;2024-02-15T09:27:41;5.53;;;3.22;;
42840;SDS011;28491;46.898;7.660;2024-02-15T09:30:07;3.50;;;2.20;;
42840;SDS011;28491;46.898;7.660;2024-02-15T09:32:35;4.15;;;2.25;;
42840;SDS011;28491;46.898;7.660;2024-02-15T09:35:01;5.47;;;2.25;;
42840;SDS011;28491;46.898;7.660;2024-02-15T09:37:26;6.80;;;2.65;;
42840;SDS011;28491;46.898;7.660;2024-02-15T09:39:53;5.20;;;2.20;;
42840;SDS011;28491;46.898;7.660;2024-02-15T09:42:20;4.22;;;2.40;;
42840;SDS011;28491;46.898;7.660;2024-02-15T09:44:46;3.80;;;2.13;;
42840;SDS011;28491;46.898;7.660;2024-02-15T09:47:12;3.55;;;2.13;;
42840;SDS011;28491;46.898;7.660;2024-02-15T09:49:40;4.28;;;2.70;;
42840;SDS011;28491;46.898;7.660;2024-02-15T09:52:06;4.43;;;2.50;;
42840;SDS011;28491;46.898;7.660;2024-02-15T09:54:38;5.78;;;2.40;;
42840;SDS011;28491;46.898;7.660;2024-02-15T09:57:08;6.35;;;2.95;;
42840;SDS011;28491;46.898;7.660;2024-02-15T09:59:34;5.53;;;2.95;;
42840;SDS011;28491;46.898;7.660;2024-02-15T10:02:01;7.35;;;3.10;;
42840;SDS011;28491;46.898;7.660;2024-02-15T10:04:27;4.82;;;2.70;;
42840;SDS011;28491;46.898;7.660;2024-02-15T10:06:53;5.97;;;2.60;;
42840;SDS011;28491;46.898;7.660;2024-02-15T10:09:28;6.70;;;3.30;;
42840;SDS011;28491;46.898;7.660;2024-02-15T10:11:59;5.38;;;2.90;;
42840;SDS011;28491;46.898;7.660;2024-02-15T10:14:26;4.60;;;2.72;;
42840;SDS011;28491;46.898;7.660;2024-02-15T10:16:52;4.38;;;2.38;;
42840;SDS011;28491;46.898;7.660;2024-02-15T10:19:19;4.28;;;2.28;;
42840;SDS011;28491;46.898;7.660;2024-02-15T10:21:50;5.72;;;3.13;;
42840;SDS011;28491;46.898;7.660;2024-02-15T10:24:18;3.60;;;2.20;;
42840;SDS011;28491;46.898;7.660;2024-02-15T10:26:44;2.85;;;1.77;;
42840;SDS011;28491;46.898;7.660;2024-02-15T10:29:13;6.57;;;1.42;;
42840;SDS011;28491;46.898;7.660;2024-02-15T10:31:51;3.00;;;1.70;;
42840;SDS011;28491;46.898;7.660;2024-02-15T10:34:18;7.35;;;1.75;;
42840;SDS011;28491;46.898;7.660;2024-02-15T10:36:45;2.70;;;1.58;;
42840;SDS011;28491;46.898;7.660;2024-02-15T10:39:17;3.03;;;1.92;;
42840;SDS011;28491;46.898;7.660;2024-02-15T10:41:51;1.67;;;1.20;;
42840;SDS011;28491;46.898;7.660;2024-02-15T10:44:19;3.95;;;1.73;;
42840;SDS011;28491;46.898;7.660;2024-02-15T10:46:47;2.45;;;1.50;;
42840;SDS011;28491;46.898;7.660;2024-02-15T10:49:21;2.90;;;1.73;;
42840;SDS011;28491;46.898;7.660;2024-02-15T10:51:50;1.63;;;1.10;;
42840;SDS011;28491;46.898;7.660;2024-02-15T10:56:49;2.50;;;1.20;;
42840;SDS011;28491;46.898;7.660;2024-02-15T10:59:21;2.30;;;1.33;;
42840;SDS011;28491;46.898;7.660;2024-02-15T11:01:56;2.90;;;1.70;;
42840;SDS011;28491;46.898;7.660;2024-02-15T11:04:24;3.97;;;1.92;;
42840;SDS011;28491;46.898;7.660;2024-02-15T11:06:57;3.03;;;1.70;;
42840;SDS011;28491;46.898;7.660;2024-02-15T11:09:23;4.82;;;1.77;;
42840;SDS011;28491;46.898;7.660;2024-02-15T11:11:53;6.40;;;1.98;;
42840;SDS011;28491;46.898;7.660;2024-02-15T11:14:27;2.53;;;1.40;;
42840;SDS011;28491;46.898;7.660;2024-02-15T11:16:59;3.03;;;2.10;;
42840;SDS011;28491;46.898;7.660;2024-02-15T11:22:00;3.67;;;1.90;;
42840;SDS011;28491;46.898;7.660;2024-02-15T11:24:29;2.95;;;1.65;;
42840;SDS011;28491;46.898;7.660;2024-02-15T11:27:00;4.93;;;1.67;;
42840;SDS011;28491;46.898;7.660;2024-02-15T11:32:46;4.55;;;2.00;;
42840;SDS011;28491;46.898;7.660;2024-02-15T11:43:00;2.38;;;1.50;;
42840;SDS011;28491;46.898;7.660;2024-02-15T11:45:26;2.65;;;1.48;;
42840;SDS011;28491;46.898;7.660;2024-02-15T11:47:58;3.00;;;1.67;;
42840;SDS011;28491;46.898;7.660;2024-02-15T11:50:24;2.08;;;1.40;;
42840;SDS011;28491;46.898;7.660;2024-02-15T11:52:52;3.97;;;1.90;;
42840;SDS011;28491;46.898;7.660;2024-02-15T11:55:26;4.47;;;1.90;;
42840;SDS011;28491;46.898;7.660;2024-02-15T12:00:41;4.57;;;1.90;;
42840;SDS011;28491;46.898;7.660;2024-02-15T12:03:26;3.92;;;2.05;;
42840;SDS011;28491;46.898;7.660;2024-02-15T12:06:11;2.65;;;1.67;;
42840;SDS011;28491;46.898;7.660;2024-02-15T12:09:00;2.50;;;1.80;;
42840;SDS011;28491;46.898;7.660;2024-02-15T12:11:44;2.63;;;1.50;;
42840;SDS011;28491;46.898;7.660;2024-02-15T12:14:28;2.67;;;1.80;;
42840;SDS011;28491;46.898;7.660;2024-02-15T12:17:12;3.03;;;1.80;;
42840;SDS011;28491;46.898;7.660;2024-02-15T12:19:59;4.47;;;2.10;;
42840;SDS011;28491;46.898;7.660;2024-02-15T12:22:27;4.72;;;2.78;;
42840;SDS011;28491;46.898;7.660;2024-02-15T12:24:56;3.63;;;1.80;;
42840;SDS011;28491;46.898;7.660;2024-02-15T12:27:23;3.03;;;1.75;;
42840;SDS011;28491;46.898;7.660;2024-02-15T12:29:52;3.60;;;1.98;;
42840;SDS011;28491;46.898;7.660;2024-02-15T12:32:23;5.45;;;2.28;;
42840;SDS011;28491;46.898;7.660;2024-02-15T12:34:52;3.33;;;1.88;;
42840;SDS011;28491;46.898;7.660;2024-02-15T12:37:19;3.03;;;1.73;;
42840;SDS011;28491;46.898;7.660;2024-02-15T12:39:46;4.00;;;2.05;;
42840;SDS011;28491;46.898;7.660;2024-02-15T12:42:13;3.30;;;2.35;;
42840;SDS011;28491;46.898;7.660;2024-02-15T12:44:42;4.75;;;2.63;;
42840;SDS011;28491;46.898;7.660;2024-02-15T12:47:17;11.73;;;2.58;;
42840;SDS011;28491;46.898;7.660;2024-02-15T12:49:47;4.50;;;1.70;;
42840;SDS011;28491;46.898;7.660;2024-02-15T12:55:10;4.70;;;2.25;;
42840;SDS011;28491;46.898;7.660;2024-02-15T12:57:37;3.90;;;1.80;;
42840;SDS011;28491;46.898;7.660;2024-02-15T13:00:07;4.43;;;2.00;;
42840;SDS011;28491;46.898;7.660;2024-02-15T13:02:37;3.33;;;1.80;;
42840;SDS011;28491;46.898;7.660;2024-02-15T13:05:04;8.30;;;2.15;;
42840;SDS011;28491;46.898;7.660;2024-02-15T13:07:36;4.65;;;2.00;;
42840;SDS011;28491;46.898;7.660;2024-02-15T13:10:03;3.72;;;1.90;;
42840;SDS011;28491;46.898;7.660;2024-02-15T13:12:31;5.65;;;2.50;;
42840;SDS011;28491;46.898;7.660;2024-02-15T13:14:59;4.20;;;2.90;;
42840;SDS011;28491;46.898;7.660;2024-02-15T13:17:28;4.68;;;3.25;;
42840;SDS011;28491;46.898;7.660;2024-02-15T13:19:54;3.75;;;2.13;;
42840;SDS011;28491;46.898;7.660;2024-02-15T13:22:27;4.05;;;2.20;;
42840;SDS011;28491;46.898;7.660;2024-02-15T13:24:57;3.63;;;2.72;;
42840;SDS011;28491;46.898;7.660;2024-02-15T13:27:22;4.78;;;2.97;;
42840;SDS011;28491;46.898;7.660;2024-02-15T13:29:48;4.32;;;2.42;;
42840;SDS011;28491;46.898;7.660;2024-02-15T13:32:15;6.07;;;3.08;;
42840;SDS011;28491;46.898;7.660;2024-02-15T13:34:42;8.75;;;3.17;;
42840;SDS011;28491;46.898;7.660;2024-02-15T13:37:10;4.03;;;2.75;;
42840;SDS011;28491;46.898;7.660;2024-02-15T13:39:38;7.18;;;2.42;;
42840;SDS011;28491;46.898;7.660;2024-02-15T13:42:08;4.22;;;2.63;;
42840;SDS011;28491;46.898;7.660;2024-02-15T13:44:33;4.38;;;2.80;;
42840;SDS011;28491;46.898;7.660;2024-02-15T13:46:59;3.28;;;2.25;;
42840;SDS011;28491;46.898;7.660;2024-02-15T13:49:25;3.47;;;2.35;;
42840;SDS011;28491;46.898;7.660;2024-02-15T13:51:51;5.53;;;2.63;;
42840;SDS011;28491;46.898;7.660;2024-02-15T13:54:17;5.07;;;3.25;;
42840;SDS011;28491;46.898;7.660;2024-02-15T13:56:43;4.47;;;2.33;;
42840;SDS011;28491;46.898;7.660;2024-02-15T13:59:09;4.47;;;2.45;;
42840;SDS011;28491;46.898;7.660;2024-02-15T14:01:34;4.32;;;2.40;;
42840;SDS011;28491;46.898;7.660;2024-02-15T14:04:08;5.10;;;2.22;;
42840;SDS011;28491;46.898;7.660;2024-02-15T14:06:34;4.07;;;2.72;;
42840;SDS011;28491;46.898;7.660;2024-02-15T14:09:01;7.20;;;3.35;;
42840;SDS011;28491;46.898;7.660;2024-02-15T14:11:28;3.92;;;2.25;;
42840;SDS011;28491;46.898;7.660;2024-02-15T14:13:53;3.50;;;2.13;;
42840;SDS011;28491;46.898;7.660;2024-02-15T14:16:23;5.10;;;2.35;;
42840;SDS011;28491;46.898;7.660;2024-02-15T14:18:49;3.38;;;2.15;;
42840;SDS011;28491;46.898;7.660;2024-02-15T14:21:15;4.82;;;3.15;;
42840;SDS011;28491;46.898;7.660;2024-02-15T14:23:41;4.07;;;2.70;;
42840;SDS011;28491;46.898;7.660;2024-02-15T14:26:07;5.75;;;2.20;;
42840;SDS011;28491;46.898;7.660;2024-02-15T14:28:32;4.15;;;2.38;;
42840;SDS011;28491;46.898;7.660;2024-02-15T14:30:59;7.60;;;2.65;;
42840;SDS011;28491;46.898;7.660;2024-02-15T14:33:43;3.67;;;2.13;;
42840;SDS011;28491;46.898;7.660;2024-02-15T14:36:09;4.25;;;2.47;;
42840;SDS011;28491;46.898;7.660;2024-02-15T14:38:34;4.30;;;2.45;;
42840;SDS011;28491;46.898;7.660;2024-02-15T14:41:00;4.55;;;2.58;;
42840;SDS011;28491;46.898;7.660;2024-02-15T14:43:27;5.45;;;2.63;;
42840;SDS011;28491;46.898;7.660;2024-02-15T14:45:53;5.15;;;2.50;;
42840;SDS011;28491;46.898;7.660;2024-02-15T14:48:21;5.70;;;2.47;;
42840;SDS011;28491;46.898;7.660;2024-02-15T14:50:48;4.15;;;2.55;;
42840;SDS011;28491;46.898;7.660;2024-02-15T14:53:15;4.43;;;2.58;;
42840;SDS011;28491;46.898;7.660;2024-02-15T14:55:43;4.75;;;3.20;;
42840;SDS011;28491;46.898;7.660;2024-02-15T14:58:12;5.38;;;3.08;;
42840;SDS011;28491;46.898;7.660;2024-02-15T15:00:38;7.13;;;2.80;;
42840;SDS011;28491;46.898;7.660;2024-02-15T15:03:06;4.05;;;2.60;;
42840;SDS011;28491;46.898;7.660;2024-02-15T15:05:32;3.90;;;2.67;;
42840;SDS011;28491;46.898;7.660;2024-02-15T15:08:16;4.15;;;2.45;;
42840;SDS011;28491;46.898;7.660;2024-02-15T15:11:00;6.75;;;2.40;;
42840;SDS011;28491;46.898;7.660;2024-02-15T15:13:44;5.30;;;2.58;;
42840;SDS011;28491;46.898;7.660;2024-02-15T15:16:10;23.83;;;3.38;;